Time;durP1;ratioP1;P1;durP2;ratioP2;P2;SDS_P1;SDS_P2;PMS_P1;PMS_P2;Temp;Humidity;BMP_temperature;BMP_pressure;BME280_temperature;BME280_humidity;BME280_pressure;Samples;Min_cycle;Max_cycle;Signal;HPM_P1;HPM_P2
2023/01/05 00:02:09;;;;;;;9.73;1.57;;;;;;;9.77;99.78;100393.50;5978773;29;20497;-77
2023/01/05 00:05:04;;;;;;;10.73;2.00;;;;;;;9.93;98.63;100392.81;5982199;28;20357;-76
2023/01/05 00:08:00;;;;;;;9.63;1.55;;;;;;;9.89;98.20;100379.03;5982481;28;20319;-75
2023/01/05 00:23:54;;;;;;;13.43;1.67;;;;;;;9.81;97.95;100389.53;5978439;28;20035;-76
2023/01/05 00:26:49;;;;;;;14.10;1.70;;;;;;;9.92;97.88;100392.00;5979431;28;20039;-76
2023/01/05 00:29:45;;;;;;;7.20;1.63;;;;;;;9.86;98.26;100397.06;5979496;29;20067;-75
2023/01/05 00:32:41;;;;;;;8.80;1.70;;;;;;;9.80;98.88;100400.31;5983082;28;20078;-76
2023/01/05 00:35:37;;;;;;;14.10;2.30;;;;;;;9.77;99.26;100379.41;5962189;29;20438;-76
2023/01/05 00:38:33;;;;;;;7.00;1.73;;;;;;;9.71;100.00;100390.59;5979663;28;20035;-76
2023/01/05 00:41:28;;;;;;;8.63;1.90;;;;;;;9.67;100.00;100386.59;5985829;28;20390;-75
2023/01/05 00:44:23;;;;;;;12.10;1.90;;;;;;;9.58;100.00;100381.19;5979388;28;20028;-76
2023/01/05 00:47:19;;;;;;;10.20;2.10;;;;;;;9.54;100.00;100378.97;5962775;29;20038;-76
2023/01/05 00:50:15;;;;;;;14.60;2.15;;;;;;;9.61;100.00;100380.06;5979536;29;20032;-75
2023/01/05 00:53:11;;;;;;;10.38;1.83;;;;;;;9.58;100.00;100385.66;5979113;29;20485;-75
2023/01/05 00:56:06;;;;;;;11.70;1.90;;;;;;;9.53;100.00;100398.50;5986048;28;20034;-76
2023/01/05 00:59:01;;;;;;;10.33;2.17;;;;;;;9.35;100.00;100376.44;5983835;28;20112;-74
2023/01/05 01:01:57;;;;;;;6.97;1.60;;;;;;;9.35;100.00;100379.91;5979560;29;20895;-76
2023/01/05 01:04:52;;;;;;;8.20;1.70;;;;;;;9.50;100.00;100402.28;5979474;29;20357;-76
2023/01/05 01:07:48;;;;;;;8.50;1.80;;;;;;;9.44;100.00;100397.56;5981721;28;20549;-76
2023/01/05 01:10:43;;;;;;;13.25;2.20;;;;;;;9.48;100.00;100396.28;5984406;29;20035;-75
2023/01/05 01:13:39;;;;;;;9.80;1.87;;;;;;;9.53;100.00;100409.94;5989232;28;20035;-75
2023/01/05 01:16:34;;;;;;;8.07;2.58;;;;;;;9.62;100.00;100413.47;5983878;28;20035;-75
2023/01/05 01:19:29;;;;;;;10.43;1.70;;;;;;;9.64;100.00;100408.91;5983498;28;20086;-75
2023/01/05 01:22:25;;;;;;;9.47;1.87;;;;;;;9.63;99.94;100414.31;5981372;29;20278;-76
2023/01/05 01:25:20;;;;;;;7.10;1.83;;;;;;;9.52;100.00;100408.25;5983250;29;20035;-75
2023/01/05 01:28:15;;;;;;;7.83;1.90;;;;;;;9.37;100.00;100412.38;5983049;29;20518;-76
2023/01/05 01:31:10;;;;;;;10.40;2.23;;;;;;;9.51;99.63;100406.56;5982976;28;20054;-74
2023/01/05 01:34:06;;;;;;;11.13;2.30;;;;;;;9.54;99.34;100432.75;5989770;28;20035;-73
2023/01/05 01:37:01;;;;;;;12.00;2.35;;;;;;;9.62;99.28;100439.16;5983482;29;20039;-74
2023/01/05 01:39:57;;;;;;;7.17;1.80;;;;;;;9.61;99.03;100424.22;5982757;29;20039;-73
2023/01/05 01:42:52;;;;;;;16.23;2.33;;;;;;;9.69;98.07;100430.47;5982695;29;20267;-74
2023/01/05 01:45:47;;;;;;;16.03;2.77;;;;;;;9.70;97.56;100426.00;5983300;29;20117;-75
2023/01/05 01:48:50;;;;;;;10.60;1.90;;;;;;;9.73;97.60;100439.75;5993754;28;20501;-75
2023/01/05 01:51:46;;;;;;;7.47;1.45;;;;;;;9.71;97.29;100438.25;5956335;29;20091;-73
2023/01/05 01:54:42;;;;;;;13.18;2.00;;;;;;;9.62;97.78;100439.16;5982371;29;20410;-74
2023/01/05 01:57:38;;;;;;;6.10;1.83;;;;;;;9.61;97.49;100445.41;5982950;29;20035;-74
2023/01/05 02:00:33;;;;;;;7.63;1.85;;;;;;;9.61;97.28;100448.06;5983102;29;20714;-74
2023/01/05 02:03:30;;;;;;;11.20;2.33;;;;;;;9.62;96.92;100453.19;5981960;29;20036;-74
2023/01/05 02:06:25;;;;;;;11.40;2.70;;;;;;;9.66;96.55;100440.50;5984483;28;20032;-76
2023/01/05 02:09:20;;;;;;;7.30;1.60;;;;;;;9.63;96.52;100451.38;5981377;29;20450;-75
2023/01/05 02:12:30;;;;;;;13.33;2.50;;;;;;;9.54;95.65;100419.53;5981849;29;20038;-75
2023/01/05 02:15:42;;;;;;;6.00;1.60;;;;;;;9.68;95.70;100425.31;5964912;29;20090;-75
2023/01/05 02:18:44;;;;;;;10.15;1.90;;;;;;;9.71;95.50;100449.69;5980747;28;20386;-77
2023/01/05 02:21:48;;;;;;;9.43;1.83;;;;;;;9.74;94.58;100425.56;5968035;28;20142;-74
2023/01/05 02:25:06;;;;;;;13.82;1.92;;;;;;;9.67;95.78;100428.94;5982215;28;20097;-74
2023/01/05 02:28:13;;;;;;;12.38;1.98;;;;;;;9.53;97.73;100452.28;5965641;29;20035;-73
2023/01/05 02:31:38;;;;;;;8.45;1.95;;;;;;;9.46;99.04;100451.19;5966112;29;20118;-76
2023/01/05 02:35:02;;;;;;;10.02;1.77;;;;;;;9.31;100.00;100430.63;5975595;28;20112;-78
2023/01/05 02:38:26;;;;;;;13.27;3.33;;;;;;;9.26;100.00;100449.59;5952794;28;20538;-75
2023/01/05 02:41:25;;;;;;;12.10;1.90;;;;;;;9.23;100.00;100452.53;5970822;28;20138;-76
2023/01/05 02:44:21;;;;;;;13.52;2.33;;;;;;;9.04;100.00;100452.56;5963007;29;20047;-72
2023/01/05 02:47:26;;;;;;;14.30;2.38;;;;;;;8.95;100.00;100461.34;5980778;29;20047;-72
2023/01/05 02:50:29;;;;;;;7.50;1.95;;;;;;;8.72;100.00;100452.91;5979775;29;20477;-74
2023/01/05 02:53:33;;;;;;;16.10;2.28;;;;;;;8.69;100.00;100466.41;5980584;29;20423;-73
2023/01/05 02:56:39;;;;;;;15.23;2.20;;;;;;;8.59;100.00;100448.88;5988754;28;20497;-72
2023/01/05 02:59:40;;;;;;;12.82;2.33;;;;;;;8.57;100.00;100456.94;5972599;28;20077;-73
2023/01/05 03:02:37;;;;;;;10.73;2.13;;;;;;;8.60;100.00;100466.41;5964764;29;20038;-73
2023/01/05 03:05:36;;;;;;;7.38;1.80;;;;;;;8.61;100.00;100479.50;5973358;28;20126;-75
2023/01/05 03:08:34;;;;;;;9.73;1.67;;;;;;;8.50;100.00;100449.72;5980240;28;20409;-73
2023/01/05 03:14:59;;;;;;;9.20;2.00;;;;;;;8.62;100.00;100462.63;5964909;29;20054;-73
2023/01/05 03:17:57;;;;;;;8.98;1.70;;;;;;;8.71;100.00;100474.19;5968673;28;21681;-73
2023/01/05 03:20:53;;;;;;;6.78;1.73;;;;;;;8.72;100.00;100467.94;5985730;28;20182;-73
2023/01/05 03:37:07;;;;;;;6.68;1.70;;;;;;;8.71;100.00;100479.47;5989354;28;20035;-74
2023/01/05 03:40:06;;;;;;;9.95;1.63;;;;;;;8.70;100.00;100480.44;5978903;29;20473;-75
2023/01/05 03:43:02;;;;;;;7.25;2.03;;;;;;;8.72;100.00;100491.72;5961606;29;20050;-72
2023/01/05 03:45:58;;;;;;;10.25;1.80;;;;;;;8.76;100.00;100487.81;5966469;28;20174;-73
2023/01/05 03:48:53;;;;;;;16.57;3.13;;;;;;;8.79;100.00;100490.19;5981799;28;20043;-73
2023/01/05 03:51:48;;;;;;;6.95;1.80;;;;;;;8.87;100.00;100504.38;5978976;29;20035;-73
2023/01/05 03:54:44;;;;;;;10.47;1.70;;;;;;;8.83;100.00;100481.81;5979345;28;20697;-74
2023/01/05 03:57:39;;;;;;;17.23;2.40;;;;;;;8.78;100.00;100493.78;5979077;29;20050;-75
2023/01/05 04:00:34;;;;;;;11.47;2.50;;;;;;;8.86;100.00;100510.63;5979816;29;20043;-75
2023/01/05 04:03:30;;;;;;;10.50;2.33;;;;;;;8.81;100.00;100493.50;5980740;28;20031;-77
2023/01/05 04:06:25;;;;;;;13.07;2.53;;;;;;;8.97;100.00;100497.25;5983516;28;20282;-74
2023/01/05 04:09:20;;;;;;;8.50;2.30;;;;;;;8.90;100.00;100500.59;5979454;29;20042;-74
2023/01/05 04:12:15;;;;;;;10.80;2.67;;;;;;;9.01;100.00;100513.69;5979963;29;20475;-74
2023/01/05 04:15:11;;;;;;;10.47;1.90;;;;;;;8.98;100.00;100516.59;5980872;29;20109;-76
2023/01/05 04:18:06;;;;;;;17.73;2.30;;;;;;;8.95;100.00;100525.66;5980128;29;20041;-74
2023/01/05 04:21:02;;;;;;;10.50;2.90;;;;;;;8.82;100.00;100509.25;5978975;28;20647;-76
2023/01/05 04:23:57;;;;;;;14.65;2.60;;;;;;;8.72;100.00;100523.44;5978835;28;20118;-75
2023/01/05 04:26:53;;;;;;;10.67;2.30;;;;;;;8.78;100.00;100521.06;5979315;28;20031;-75
2023/01/05 04:29:48;;;;;;;7.40;2.07;;;;;;;8.69;100.00;100508.69;5979098;29;20059;-74
2023/01/05 04:32:43;;;;;;;15.97;3.20;;;;;;;8.76;100.00;100517.72;5978406;29;20035;-73
2023/01/05 04:35:39;;;;;;;12.17;2.30;;;;;;;8.65;100.00;100506.44;5979036;29;20122;-73
2023/01/05 04:38:34;;;;;;;16.40;2.92;;;;;;;8.71;100.00;100533.19;5966400;28;20034;-74
2023/01/05 04:41:29;;;;;;;11.73;2.43;;;;;;;8.70;100.00;100528.84;5982333;28;20039;-74
2023/01/05 04:44:25;;;;;;;15.93;3.17;;;;;;;8.76;100.00;100540.69;5986362;28;20043;-76
2023/01/05 04:47:20;;;;;;;14.07;2.50;;;;;;;8.71;100.00;100540.25;5983378;29;20378;-73
2023/01/05 04:50:16;;;;;;;10.95;2.33;;;;;;;8.64;100.00;100541.81;5983689;29;20035;-75
2023/01/05 04:53:11;;;;;;;10.52;1.77;;;;;;;8.60;100.00;100538.59;5982765;29;20050;-73
2023/01/05 04:56:06;;;;;;;7.00;2.10;;;;;;;8.57;100.00;100538.03;5994883;28;20035;-74
2023/01/05 04:59:02;;;;;;;16.92;3.17;;;;;;;8.54;100.00;100536.50;5983511;28;20119;-72
2023/01/05 05:01:57;;;;;;;8.68;2.00;;;;;;;8.55;100.00;100553.19;5982045;29;20390;-73
2023/01/05 05:04:52;;;;;;;13.47;2.60;;;;;;;8.56;100.00;100553.03;5983033;29;20174;-73
2023/01/05 05:07:48;;;;;;;13.33;2.60;;;;;;;8.63;100.00;100563.91;5982859;29;20031;-73
2023/01/05 05:10:43;;;;;;;9.60;1.70;;;;;;;8.64;100.00;100566.41;5982976;29;20387;-72
2023/01/05 05:13:38;;;;;;;13.03;2.37;;;;;;;8.56;100.00;100554.88;5983053;28;20034;-72
2023/01/05 05:16:33;;;;;;;10.83;2.80;;;;;;;8.67;100.00;100567.97;5982306;28;20041;-73
2023/01/05 05:19:29;;;;;;;12.30;2.37;;;;;;;8.67;100.00;100579.34;5982723;28;20046;-73
2023/01/05 05:22:25;;;;;;;7.63;2.27;;;;;;;8.72;100.00;100576.31;5982180;29;20043;-74
2023/01/05 05:25:20;;;;;;;12.77;2.05;;;;;;;8.66;100.00;100567.13;5982895;29;20063;-73
2023/01/05 05:28:16;;;;;;;11.40;2.23;;;;;;;8.70;100.00;100572.94;5982165;29;20047;-74
2023/01/05 05:31:11;;;;;;;7.65;1.83;;;;;;;8.69;100.00;100571.31;5985135;28;20282;-73
2023/01/05 05:34:06;;;;;;;11.00;2.53;;;;;;;8.54;100.00;100551.50;5981568;29;20039;-73
2023/01/05 05:37:02;;;;;;;12.83;2.27;;;;;;;8.71;100.00;100578.13;5982649;29;20110;-75
2023/01/05 05:39:57;;;;;;;10.23;3.33;;;;;;;8.65;100.00;100576.00;5982137;28;20537;-74
2023/01/05 05:42:53;;;;;;;18.53;2.70;;;;;;;8.73;100.00;100578.81;5981868;29;20111;-75
2023/01/05 05:45:48;;;;;;;7.20;2.17;;;;;;;8.75;100.00;100587.44;5982555;28;20031;-73
2023/01/05 05:48:44;;;;;;;13.47;2.10;;;;;;;8.66;100.00;100576.84;5981902;28;20035;-74
2023/01/05 05:51:39;;;;;;;6.93;2.07;;;;;;;8.73;100.00;100584.09;5982083;28;20498;-74
2023/01/05 05:54:34;;;;;;;6.53;1.63;;;;;;;8.82;100.00;100603.59;5980639;28;20263;-74
2023/01/05 05:57:29;;;;;;;9.33;2.00;;;;;;;8.80;100.00;100587.03;5982333;29;20270;-75
2023/01/05 06:00:25;;;;;;;15.20;2.30;;;;;;;8.76;100.00;100609.41;5981477;29;20043;-78
2023/01/05 06:03:20;;;;;;;12.53;2.27;;;;;;;8.74;100.00;100601.63;5981651;28;20034;-77
2023/01/05 06:06:15;;;;;;;15.50;2.97;;;;;;;8.67;100.00;100595.22;5980501;28;20046;-76
2023/01/05 06:09:11;;;;;;;8.23;2.60;;;;;;;8.65;100.00;100588.38;5982040;29;20031;-78
2023/01/05 06:12:06;;;;;;;10.30;1.97;;;;;;;8.83;100.00;100621.94;5981270;29;20046;-77
2023/01/05 06:15:01;;;;;;;9.45;2.22;;;;;;;8.83;100.00;100623.78;5981710;29;20051;-73
2023/01/05 06:17:57;;;;;;;12.93;2.10;;;;;;;8.86;100.00;100620.84;5982033;29;20490;-73
2023/01/05 06:20:52;;;;;;;9.00;2.30;;;;;;;8.83;100.00;100618.50;5980323;28;20035;-74
2023/01/05 06:23:48;;;;;;;15.30;2.30;;;;;;;8.90;100.00;100632.81;5982069;28;20069;-77
2023/01/05 06:26:44;;;;;;;8.50;2.20;;;;;;;8.84;100.00;100625.44;5984254;28;20114;-76
2023/01/05 06:29:39;;;;;;;16.02;2.97;;;;;;;8.69;100.00;100608.31;5981116;29;20471;-75
2023/01/05 06:32:35;;;;;;;15.17;2.20;;;;;;;8.86;100.00;100631.41;5980780;29;20027;-73
2023/01/05 06:35:30;;;;;;;14.10;2.30;;;;;;;8.85;100.00;100635.88;5980817;29;20027;-74
2023/01/05 06:38:26;;;;;;;11.20;1.70;;;;;;;8.85;100.00;100656.19;5983346;28;20090;-73
2023/01/05 06:41:21;;;;;;;11.35;2.00;;;;;;;8.77;100.00;100645.47;5983242;28;20031;-74
2023/01/05 06:44:16;;;;;;;10.07;1.87;;;;;;;8.64;100.00;100632.47;5980617;29;20034;-76
2023/01/05 06:47:12;;;;;;;5.27;1.97;;;;;;;8.77;100.00;100674.56;5981347;29;20478;-75
2023/01/05 06:50:08;;;;;;;6.70;1.50;;;;;;;8.80;100.00;100684.88;5981430;29;20027;-76
2023/01/05 06:53:03;;;;;;;12.73;2.65;;;;;;;8.67;100.00;100686.91;5981037;29;20082;-76
2023/01/05 06:55:59;;;;;;;6.45;1.75;;;;;;;8.43;100.00;100676.66;5980431;28;20027;-73
2023/01/05 06:58:54;;;;;;;9.20;2.00;;;;;;;8.31;100.00;100690.94;5980265;28;20035;-73
2023/01/05 07:01:49;;;;;;;8.18;2.47;;;;;;;8.25;100.00;100697.56;5980354;29;20031;-74
2023/01/05 07:04:44;;;;;;;9.97;3.33;;;;;;;8.16;100.00;100673.72;5979962;28;20042;-73
2023/01/05 07:07:40;;;;;;;12.80;2.80;;;;;;;8.23;100.00;100696.00;5980787;29;20467;-74
2023/01/05 07:10:35;;;;;;;9.95;2.45;;;;;;;8.22;100.00;100702.25;5979091;28;20041;-73
2023/01/05 07:13:30;;;;;;;14.17;2.70;;;;;;;8.21;100.00;100709.34;5981996;28;20031;-73
2023/01/05 07:16:26;;;;;;;10.17;2.63;;;;;;;8.25;100.00;100709.91;5980161;28;20115;-74
2023/01/05 07:19:21;;;;;;;5.40;2.50;;;;;;;8.22;100.00;100700.47;5983612;28;20043;-74
2023/01/05 07:22:16;;;;;;;14.77;2.90;;;;;;;8.23;100.00;100709.22;5979868;29;20039;-73
2023/01/05 07:25:11;;;;;;;18.33;3.33;;;;;;;8.22;100.00;100713.66;5967698;28;20067;-74
2023/01/05 07:28:07;;;;;;;13.77;2.20;;;;;;;8.25;100.00;100710.75;5974709;28;20470;-74
2023/01/05 07:31:03;;;;;;;9.30;2.50;;;;;;;8.37;100.00;100738.78;5984781;28;20046;-74
2023/01/05 07:33:58;;;;;;;11.38;2.22;;;;;;;8.33;100.00;100713.63;5985778;28;20371;-75
2023/01/05 07:36:53;;;;;;;9.10;2.23;;;;;;;8.40;100.00;100724.47;5985568;28;20080;-76
2023/01/05 07:39:49;;;;;;;10.33;2.20;;;;;;;8.29;100.00;100728.03;5984085;28;20039;-76
2023/01/05 07:42:49;;;;;;;13.03;2.93;;;;;;;8.29;100.00;100728.03;5990402;28;20094;-74
2023/01/05 07:45:44;;;;;;;11.77;2.85;;;;;;;8.27;100.00;100734.44;5983219;28;20061;-74
2023/01/05 07:48:40;;;;;;;10.47;2.37;;;;;;;8.28;100.00;100744.88;5982722;28;20031;-74
2023/01/05 07:51:36;;;;;;;15.15;2.42;;;;;;;8.32;100.00;100737.50;5990049;28;20031;-75
2023/01/05 07:54:31;;;;;;;7.50;2.25;;;;;;;8.41;100.00;100762.31;5979035;29;20039;-74
2023/01/05 07:57:26;;;;;;;12.77;2.30;;;;;;;8.44;100.00;100767.34;5979236;29;20043;-75
2023/01/05 08:00:22;;;;;;;14.23;2.80;;;;;;;8.47;100.00;100767.91;5978051;28;20054;-74
2023/01/05 08:03:17;;;;;;;11.10;2.53;;;;;;;8.45;100.00;100774.31;5998794;28;21483;-74
2023/01/05 08:06:14;;;;;;;16.30;2.80;;;;;;;8.44;100.00;100783.19;5979486;29;20031;-76
2023/01/05 08:10:27;;;;;;;20.02;3.53;;;;;;;8.32;100.00;100764.78;5978661;29;20526;-75
2023/01/05 08:12:27;;;;;;;12.50;3.67;;;;;;;8.25;100.00;100763.59;5978573;29;20039;-76
2023/01/05 08:15:22;;;;;;;11.57;2.92;;;;;;;8.43;100.00;100800.84;5978973;29;20042;-75
2023/01/05 08:18:18;;;;;;;16.13;2.87;;;;;;;8.44;100.00;100802.53;5978441;29;20106;-76
2023/01/05 08:21:13;;;;;;;12.68;2.67;;;;;;;8.45;100.00;100801.56;5979368;28;20023;-75
2023/01/05 08:24:09;;;;;;;17.03;3.10;;;;;;;8.36;100.00;100807.63;5978633;29;20039;-75
2023/01/05 08:27:04;;;;;;;8.63;2.83;;;;;;;8.42;100.00;100827.41;5954952;29;20314;-75
2023/01/05 08:29:59;;;;;;;13.03;2.87;;;;;;;8.29;100.00;100820.50;5975683;29;20035;-74
2023/01/05 08:32:55;;;;;;;15.10;2.93;;;;;;;8.29;100.00;100809.94;5978100;29;20027;-73
2023/01/05 08:35:50;;;;;;;7.27;2.37;;;;;;;8.30;100.00;100830.13;5978737;29;20032;-74
2023/01/05 08:38:49;;;;;;;13.63;3.77;;;;;;;8.35;100.00;100835.84;5978270;29;20074;-73
2023/01/05 08:41:44;;;;;;;11.95;3.75;;;;;;;8.31;100.00;100826.53;5978527;29;20066;-74
2023/01/05 08:44:40;;;;;;;15.20;2.63;;;;;;;8.23;100.00;100839.50;5977168;28;20386;-74
2023/01/05 08:47:35;;;;;;;13.63;3.23;;;;;;;8.20;100.00;100839.75;5979997;28;20035;-73
2023/01/05 08:50:30;;;;;;;15.50;4.03;;;;;;;8.19;100.00;100853.06;5979169;28;20034;-73
2023/01/05 08:53:26;;;;;;;9.67;2.73;;;;;;;8.19;100.00;100842.50;5984827;28;20423;-74
2023/01/05 08:56:26;;;;;;;12.60;3.30;;;;;;;8.29;100.00;100865.41;5978161;29;20439;-73
2023/01/05 08:59:21;;;;;;;6.28;2.75;;;;;;;8.24;100.00;100854.38;5978401;29;20027;-72
2023/01/05 09:02:17;;;;;;;15.60;2.70;;;;;;;8.29;100.00;100848.72;5977328;29;20039;-73
2023/01/05 09:05:13;;;;;;;11.07;3.28;;;;;;;8.30;100.00;100840.69;5978438;29;20054;-73
2023/01/05 09:08:08;;;;;;;14.55;4.07;;;;;;;8.38;100.00;100869.94;5978756;28;20051;-73
2023/01/05 09:11:12;;;;;;;12.97;3.30;;;;;;;8.35;100.00;100883.41;5993526;28;20602;-73
2023/01/05 09:14:11;;;;;;;15.40;3.80;;;;;;;8.32;100.00;100883.66;5977276;28;20475;-73
2023/01/05 09:17:06;;;;;;;10.65;4.03;;;;;;;8.34;100.00;100892.28;5961145;29;20062;-73
2023/01/05 09:20:02;;;;;;;8.97;2.47;;;;;;;8.22;100.00;100869.50;5977466;28;20035;-73
2023/01/05 09:22:57;;;;;;;9.95;3.25;;;;;;;8.33;100.00;100900.34;5977940;28;20275;-73
2023/01/05 09:25:53;;;;;;;8.90;2.83;;;;;;;8.34;100.00;100905.50;5991886;28;20024;-74
2023/01/05 09:28:48;;;;;;;7.47;2.30;;;;;;;8.41;100.00;100907.63;5979423;28;20110;-73
2023/01/05 09:31:43;;;;;;;14.23;4.43;;;;;;;8.42;100.00;100915.47;5981165;29;20634;-73
2023/01/05 09:34:39;;;;;;;11.80;5.00;;;;;;;8.41;100.00;100915.56;5979318;29;20063;-73
2023/01/05 09:37:34;;;;;;;14.93;4.93;;;;;;;8.48;100.00;100943.19;5982241;29;20285;-73
2023/01/05 09:40:34;;;;;;;11.10;3.70;;;;;;;8.31;100.00;100931.34;5982335;29;20027;-74
2023/01/05 09:43:34;;;;;;;12.35;3.70;;;;;;;8.34;100.00;100945.13;5964239;29;20043;-73
2023/01/05 09:46:33;;;;;;;11.63;3.53;;;;;;;8.30;100.00;100946.38;5981814;29;20038;-73
2023/01/05 09:49:30;;;;;;;10.20;2.35;;;;;;;8.26;100.00;100944.88;5981221;29;20382;-74
2023/01/05 09:52:25;;;;;;;13.88;2.50;;;;;;;8.27;100.00;100949.25;5980553;29;20031;-74
2023/01/05 09:55:23;;;;;;;13.53;3.97;;;;;;;8.30;100.00;100951.66;5981082;29;20054;-74
2023/01/05 09:58:22;;;;;;;13.40;2.85;;;;;;;8.33;100.00;100967.25;5964752;29;20298;-75
2023/01/05 10:01:18;;;;;;;10.63;2.92;;;;;;;8.28;100.00;100944.81;5980733;29;20031;-74
2023/01/05 10:04:16;;;;;;;11.70;2.83;;;;;;;8.26;100.00;100954.66;5980766;29;20031;-75
2023/01/05 10:07:19;;;;;;;16.38;3.53;;;;;;;8.31;100.00;100963.91;5963175;29;20043;-75
2023/01/05 10:13:01;;;;;;;13.73;3.30;;;;;;;8.37;100.00;100970.47;5953646;28;20387;-72
2023/01/05 10:14:11;;;;;;;12.00;2.80;;;;;;;8.33;100.00;100969.06;5966024;29;20041;-74
2023/01/05 10:17:12;;;;;;;16.40;3.15;;;;;;;8.44;100.00;100984.03;5964513;29;20059;-73
2023/01/05 10:20:18;;;;;;;6.93;3.05;;;;;;;8.44;100.00;101005.16;5980997;28;20042;-75
2023/01/05 10:23:35;;;;;;;1.02;0.40;;;;;;;7.51;100.00;101012.56;5963148;29;20039;-74
2023/01/05 10:26:43;;;;;;;1.65;0.40;;;;;;;7.13;100.00;100994.44;5963893;29;20093;-73
2023/01/05 10:29:43;;;;;;;2.28;0.57;;;;;;;7.03;100.00;101016.34;5981241;29;20047;-73
2023/01/05 10:32:59;;;;;;;3.00;0.50;;;;;;;6.86;100.00;101001.78;5963116;29;20461;-73
2023/01/05 10:36:04;;;;;;;1.02;0.43;;;;;;;6.82;100.00;101008.22;5963850;29;20127;-73
2023/01/05 10:39:24;;;;;;;2.25;0.55;;;;;;;6.91;100.00;101026.00;5979742;29;20422;-73
2023/01/05 10:42:24;;;;;;;1.15;0.60;;;;;;;6.94;100.00;101030.22;5962734;29;20113;-73
2023/01/05 10:45:20;;;;;;;1.38;0.40;;;;;;;7.00;100.00;101032.38;5963353;29;20035;-72
2023/01/05 10:48:19;;;;;;;2.88;0.32;;;;;;;7.08;100.00;101016.81;5990299;28;20379;-73
2023/01/05 10:51:14;;;;;;;1.30;0.60;;;;;;;7.10;100.00;101010.47;5978128;29;20483;-73
2023/01/05 10:54:32;;;;;;;3.00;0.60;;;;;;;7.29;100.00;101032.81;5979768;29;20052;-75
2023/01/05 10:57:27;;;;;;;2.17;0.75;;;;;;;7.36;100.00;101052.50;5957913;29;20035;-72
2023/01/05 11:00:38;;;;;;;3.03;0.50;;;;;;;7.33;100.00;101050.94;5979762;29;20051;-73
2023/01/05 11:03:38;;;;;;;3.40;0.55;;;;;;;7.18;100.00;101034.47;5979185;29;20503;-74
2023/01/05 11:06:34;;;;;;;2.03;0.70;;;;;;;7.23;100.00;101057.03;5962423;29;20036;-74
2023/01/05 11:09:30;;;;;;;3.25;0.90;;;;;;;7.18;100.00;101038.91;5962908;29;20031;-74
2023/01/05 11:12:26;;;;;;;5.25;0.70;;;;;;;7.32;100.00;101057.16;5978435;29;20094;-75
2023/01/05 11:15:21;;;;;;;1.65;0.55;;;;;;;7.20;100.00;101037.00;5988088;28;20106;-74
2023/01/05 11:18:55;;;;;;;3.70;0.47;;;;;;;7.25;100.00;101053.31;5979774;29;20046;-73
2023/01/05 11:21:50;;;;;;;1.02;0.55;;;;;;;6.97;100.00;101029.97;5975881;28;20039;-75
2023/01/05 11:24:49;;;;;;;0.70;0.50;;;;;;;6.98;100.00;101050.97;5962605;29;20074;-74
2023/01/05 11:27:45;;;;;;;1.30;0.60;;;;;;;6.87;100.00;101043.03;5979561;29;20058;-75
2023/01/05 11:31:01;;;;;;;2.47;0.60;;;;;;;7.02;100.00;101068.22;5979873;29;20102;-75
2023/01/05 11:33:57;;;;;;;1.38;0.60;;;;;;;7.08;100.00;101073.06;5978674;29;20050;-75
2023/01/05 11:37:21;;;;;;;3.95;0.43;;;;;;;7.18;100.00;101083.72;5979619;29;20071;-76
2023/01/05 11:40:18;;;;;;;2.65;0.57;;;;;;;7.08;100.00;101059.88;5977661;29;20380;-74
2023/01/05 11:43:16;;;;;;;1.90;0.50;;;;;;;7.11;100.00;101067.53;5978858;29;20031;-74
2023/01/05 11:46:13;;;;;;;3.50;0.90;;;;;;;7.22;100.00;101065.88;5978370;29;20035;-74
2023/01/05 11:49:09;;;;;;;0.60;0.40;;;;;;;7.20;100.00;101069.47;5979539;29;20041;-75
2023/01/05 11:52:23;;;;;;;4.65;0.80;;;;;;;7.18;100.00;101068.75;5977492;28;20470;-75
2023/01/05 11:55:19;;;;;;;3.53;0.77;;;;;;;7.39;100.00;101094.47;5979278;29;20083;-76
2023/01/05 11:58:21;;;;;;;3.00;0.70;;;;;;;7.39;100.00;101094.47;5978613;29;20126;-75
2023/01/05 12:01:24;;;;;;;3.92;0.88;;;;;;;7.43;100.00;101103.81;5978901;29;20039;-75
2023/01/05 12:04:57;;;;;;;2.97;0.70;;;;;;;7.31;100.00;101081.03;5960973;29;20031;-75
2023/01/05 12:08:02;;;;;;;5.35;0.82;;;;;;;7.34;100.00;101092.16;5982176;28;20153;-75
2023/01/05 12:11:16;;;;;;;0.57;0.30;;;;;;;7.37;100.00;101107.78;5958975;29;20035;-74
2023/01/05 12:14:35;;;;;;;3.00;0.68;;;;;;;7.19;100.00;101088.91;5978226;29;20232;-74
2023/01/05 12:17:45;;;;;;;1.33;0.80;;;;;;;7.40;100.00;101118.09;5973796;29;20048;-75
2023/01/05 12:21:03;;;;;;;4.55;0.80;;;;;;;7.38;100.00;101111.25;5978748;28;20086;-74
2023/01/05 12:24:22;;;;;;;4.57;0.77;;;;;;;7.34;100.00;101138.84;5961471;28;20398;-73
2023/01/05 12:27:30;;;;;;;4.20;1.08;;;;;;;7.24;100.00;101114.06;5976867;29;20492;-75
2023/01/05 12:30:40;;;;;;;0.88;0.50;;;;;;;7.19;100.00;101115.28;5978734;29;20478;-74
2023/01/05 12:33:50;;;;;;;2.08;0.50;;;;;;;7.18;100.00;101116.22;5977727;29;20043;-75
2023/01/05 12:37:03;;;;;;;0.85;0.50;;;;;;;7.17;100.00;101117.16;5979129;29;20032;-75
2023/01/05 12:40:22;;;;;;;1.92;0.52;;;;;;;7.17;100.00;101125.06;5961350;29;20421;-75
2023/01/05 12:43:42;;;;;;;2.53;0.52;;;;;;;7.08;100.00;101107.31;5961118;29;20032;-75
2023/01/05 12:46:49;;;;;;;1.20;0.52;;;;;;;7.27;100.00;101127.03;5961160;29;20115;-74
2023/01/05 12:49:54;;;;;;;1.70;0.60;;;;;;;7.24;100.00;101132.53;5961173;29;20038;-75
2023/01/05 12:52:55;;;;;;;0.85;0.50;;;;;;;7.24;100.00;101130.75;5977897;29;20034;-75
2023/01/05 12:55:54;;;;;;;3.95;0.60;;;;;;;7.24;100.00;101128.13;5958830;29;20039;-75
2023/01/05 12:59:04;;;;;;;2.75;0.60;;;;;;;7.37;100.00;101133.31;5958846;29;20039;-74
2023/01/05 13:02:21;;;;;;;1.27;0.70;;;;;;;7.26;100.00;101112.16;5960539;29;20035;-74
2023/01/05 13:05:30;;;;;;;2.13;0.50;;;;;;;7.29;100.00;101111.94;5965070;29;20027;-75
2023/01/05 13:08:34;;;;;;;4.70;0.73;;;;;;;7.44;100.00;101139.81;5986816;28;20566;-74
2023/01/05 13:11:32;;;;;;;3.90;0.52;;;;;;;7.37;100.00;101125.38;5964580;29;20042;-74
2023/01/05 13:14:32;;;;;;;3.92;0.90;;;;;;;7.48;100.00;101141.25;5964496;29;20043;-74
2023/01/05 13:17:33;;;;;;;2.88;0.57;;;;;;;7.32;100.00;101130.16;5982522;29;20115;-75
2023/01/05 13:20:41;;;;;;;1.17;0.30;;;;;;;7.35;100.00;101127.31;5965321;29;20038;-75
2023/01/05 13:23:40;;;;;;;1.25;0.52;;;;;;;7.37;100.00;101135.94;5964417;29;20031;-75
2023/01/05 13:26:36;;;;;;;2.35;0.47;;;;;;;7.26;100.00;101130.63;5978888;29;20155;-74
2023/01/05 13:29:38;;;;;;;2.70;0.80;;;;;;;7.43;100.00;101153.94;5965139;29;20035;-76
2023/01/05 13:32:51;;;;;;;2.28;0.70;;;;;;;7.38;100.00;101140.28;5964100;29;20507;-75
2023/01/05 13:36:20;;;;;;;2.60;0.50;;;;;;;7.42;100.00;101157.56;5982168;29;20023;-76
2023/01/05 13:39:40;;;;;;;2.00;0.30;;;;;;;7.43;100.00;101153.94;5981908;29;20054;-75
2023/01/05 13:42:54;;;;;;;2.00;0.50;;;;;;;7.54;100.00;101172.47;5981378;29;20031;-75
2023/01/05 13:45:52;;;;;;;2.53;0.52;;;;;;;7.57;100.00;101177.50;5982288;29;20030;-76
2023/01/05 13:49:03;;;;;;;3.17;0.80;;;;;;;7.59;100.00;101178.22;5976818;29;20039;-74
2023/01/05 13:52:00;;;;;;;2.83;0.93;;;;;;;7.57;100.00;101182.78;5955604;29;20122;-73
2023/01/05 13:55:00;;;;;;;1.52;0.30;;;;;;;7.62;100.00;101199.13;5964451;29;20435;-75
2023/01/05 13:57:55;;;;;;;3.00;0.70;;;;;;;7.49;100.00;101175.47;5981891;29;20028;-75
2023/01/05 14:00:53;;;;;;;3.22;0.73;;;;;;;7.54;100.00;101181.22;5984972;28;20117;-75
2023/01/05 14:03:51;;;;;;;3.60;0.50;;;;;;;7.52;100.00;101187.56;5973073;28;20143;-75
2023/01/05 14:06:50;;;;;;;2.10;0.57;;;;;;;7.66;100.00;101208.50;5963383;29;20038;-76
2023/01/05 14:09:48;;;;;;;5.68;0.88;;;;;;;7.56;100.00;101186.38;5962654;29;20038;-76
2023/01/05 14:12:48;;;;;;;2.28;0.57;;;;;;;7.69;100.00;101201.16;5960612;29;20386;-75
2023/01/05 14:15:45;;;;;;;1.17;0.45;;;;;;;7.53;100.00;101182.16;5978521;28;20097;-76
2023/01/05 14:18:51;;;;;;;1.33;0.50;;;;;;;7.63;100.00;101203.44;5979133;29;20035;-75
2023/01/05 14:21:50;;;;;;;2.40;0.50;;;;;;;7.76;100.00;101220.03;5978004;28;20372;-76